Weather History for Robinson, IL

Change the Weather History Date:

Saturday, January 25, 2014

  Actual Average (KLWV) Record (KLWV)
Temperature  
Mean Temperature 28 °F 31 °F  
Max Temperature 40 °F 40 °F 51 °F (2005)
Min Temperature 16 °F 23 °F 0 °F (2008)
Degree Days  
Heating Degree Days 37 34  
Month to date heating degree days 850  
Since 1 July heating degree days 2649  
Cooling Degree Days 0 0  
Month to date cooling degree days 0  
Year to date cooling degree days 0  
Moisture  
Dew Point 16 °F    
Average Humidity 58    
Maximum Humidity 80    
Minimum Humidity 33    
Precipitation  
Precipitation 0.00 in 0.06 in 0.42 in (1990)
Month to date precipitation 2.00  
Year to date precipitation 2.00  
Sea Level Pressure  
Sea Level Pressure 29.80 in    
Wind  
Wind Speed 18 mph (West)    
Max Wind Speed 33 mph    
Max Gust Speed 44 mph    
Visibility 10 miles    
Events Snow    
T = Trace of Precipitation, MM = Missing Value Source: NWS Daily Summary

Daily Weather History Graph

Daily Weather History Graph

Search for Another Location

Airport:

Trip Planner

Search our weather history database for the weather conditions in past years. The results will help you decide how hot, cold, wet, or windy it might be!

Date:

Astronomy

Jan. 25, 2014 Rise Set
Actual Time 7:02 AM CST 5:03 PM CST
Civil Twilight 6:34 AM CST 5:32 PM CST
Nautical Twilight 6:01 AM CST 6:04 PM CST
Astronomical Twilight 5:30 AM CST 6:36 PM CST
Moon 1:34 AM CST (1/25) 12:03 PM CST (1/25)
Length of Visible Light 10h 58m
Length of Day
10h 01m
Waning Crescent, 34% of the Moon is Illuminated
Jan 25
Waning Crescent
Jan 30
New
Feb 6
First Quarter
Feb 14
Full
Feb 22
Last Quarter

Hourly Weather History & Observations

Time (CST) Temp. Windchill Dew Point Humidity Pressure Visibility Wind Dir Wind Speed Gust Speed Precip Events Conditions
12:15 AM 29.1 °F 16.0 °F 13.5 °F 52% 29.79 in 10.0 mi SW 20.7 mph 24.2 mph N/A   Overcast
12:35 AM 29.1 °F 16.7 °F 14.5 °F 55% 29.78 in 10.0 mi SW 18.4 mph 28.8 mph N/A   Overcast
12:55 AM 29.3 °F 17.0 °F 14.2 °F 53% 29.76 in 10.0 mi SW 18.4 mph 24.2 mph N/A   Overcast
1:15 AM 29.8 °F 17.7 °F 14.4 °F 53% 29.73 in 10.0 mi SSW 18.4 mph 26.5 mph N/A   Overcast
1:35 AM 30.0 °F 16.3 °F 14.5 °F 53% 29.73 in 10.0 mi SW 24.2 mph 32.2 mph N/A   Overcast
1:55 AM 30.2 °F 17.8 °F 14.7 °F 53% 29.71 in 10.0 mi SW 19.6 mph 27.6 mph N/A   Overcast
2:15 AM 30.6 °F 18.6 °F 15.3 °F 53% 29.70 in 10.0 mi SW 18.4 mph 23.0 mph N/A   Overcast
2:35 AM 30.6 °F 19.4 °F 16.0 °F 55% 29.70 in 10.0 mi SW 16.1 mph 29.9 mph N/A   Overcast
2:55 AM 30.2 °F 19.3 °F 16.0 °F 56% 29.68 in 10.0 mi SSW 15.0 mph 20.7 mph N/A   Overcast
3:15 AM 30.7 °F 18.1 °F 16.9 °F 56% 29.68 in 10.0 mi SW 20.7 mph 31.1 mph N/A   Overcast
3:35 AM 30.2 °F 17.1 °F 19.6 °F 65% 29.68 in 5.0 mi SW 21.9 mph 26.5 mph N/A Snow Light Snow
3:55 AM 29.8 °F 17.7 °F 19.4 °F 65% 29.66 in 7.0 mi SW 18.4 mph 29.9 mph N/A Snow Light Snow
4:15 AM 29.8 °F 18.9 °F 19.2 °F 65% 29.65 in 10.0 mi SSW 15.0 mph 23.0 mph N/A   Overcast
4:35 AM 30.6 °F 20.7 °F 18.0 °F 60% 29.65 in 10.0 mi SW 12.7 mph 19.6 mph N/A   Overcast
4:55 AM 31.1 °F 20.9 °F 17.1 °F 56% 29.66 in 10.0 mi SW 13.8 mph - N/A   Overcast
5:15 AM 31.3 °F 21.1 °F 17.8 °F 57% 29.65 in 10.0 mi SW 13.8 mph - N/A   Overcast
5:35 AM 31.6 °F 21.6 °F 18.0 °F 57% 29.65 in 10.0 mi WSW 13.8 mph - N/A   Overcast
5:55 AM 31.8 °F 21.8 °F 18.3 °F 57% 29.65 in 10.0 mi WSW 13.8 mph - N/A   Overcast
6:15 AM 32.0 °F 20.5 °F 19.2 °F 59% 29.65 in 10.0 mi WSW 18.4 mph 23.0 mph N/A   Overcast
6:35 AM 32.4 °F 21.7 °F 20.1 °F 61% 29.65 in 10.0 mi WSW 16.1 mph - N/A   Overcast
6:55 AM 32.9 °F 22.4 °F 21.4 °F 63% 29.66 in 10.0 mi WSW 16.1 mph 20.7 mph N/A   Overcast
7:15 AM 33.8 °F 23.9 °F 25.2 °F 71% 29.66 in 10.0 mi West 15.0 mph 23.0 mph N/A   Overcast
7:35 AM 34.2 °F 24.8 °F 26.2 °F 73% 29.67 in 10.0 mi West 13.8 mph 20.7 mph N/A   Overcast
7:55 AM 35.1 °F 24.1 °F 28.4 °F 77% 29.67 in 10.0 mi West 19.6 mph - N/A   Overcast
8:15 AM 35.6 °F 24.8 °F 29.5 °F 78% 29.68 in 10.0 mi West 19.6 mph - N/A   Overcast
8:35 AM 36.1 °F 27.7 °F 30.2 °F 79% 29.68 in 10.0 mi West 12.7 mph 21.9 mph N/A   Overcast
8:55 AM 36.7 °F 27.2 °F 30.9 °F 80% 29.68 in 10.0 mi West 16.1 mph 23.0 mph N/A   Overcast
9:15 AM 37.9 °F 28.2 °F 31.1 °F 76% 29.68 in 10.0 mi West 18.4 mph 21.9 mph N/A   Mostly Cloudy
9:35 AM 39.4 °F 30.4 °F 31.3 °F 73% 29.68 in 10.0 mi WNW 17.3 mph 27.6 mph N/A   Mostly Cloudy
9:55 AM 39.2 °F 30.2 °F 31.1 °F 73% 29.69 in 10.0 mi West 17.3 mph 25.3 mph N/A   Overcast
10:15 AM 39.6 °F 27.7 °F 30.2 °F 69% 29.69 in 10.0 mi West 31.1 mph 40.3 mph N/A   Overcast
10:35 AM 40.1 °F 29.2 °F 29.8 °F 67% 29.70 in 10.0 mi WNW 26.5 mph 35.7 mph N/A   Overcast
10:55 AM 38.3 °F 27.6 °F 31.1 °F 75% 29.71 in 5.0 mi NW 23.0 mph 33.4 mph N/A   Unknown
11:15 AM 38.7 °F 27.3 °F 27.1 °F 63% 29.71 in 10.0 mi NW 26.5 mph 36.8 mph N/A   Scattered Clouds
11:35 AM 38.1 °F 25.3 °F 11.3 °F 33% 29.72 in 10.0 mi WNW 33.4 mph 42.6 mph N/A   Clear
11:55 AM 37.4 °F 25.2 °F 12.0 °F 35% 29.73 in 10.0 mi WNW 28.8 mph 43.7 mph N/A   Clear
12:15 PM 35.8 °F 23.0 °F 10.6 °F 35% 29.74 in 10.0 mi NW 28.8 mph 42.6 mph N/A   Clear
12:35 PM 35.6 °F 22.5 °F 15.8 °F 44% 29.75 in 10.0 mi NW 29.9 mph 38.0 mph N/A   Clear
12:55 PM 35.6 °F 24.5 °F 18.3 °F 50% 29.75 in 10.0 mi NW 20.7 mph 34.5 mph N/A   Clear
1:15 PM 35.1 °F 22.0 °F 18.5 °F 51% 29.76 in 10.0 mi NW 28.8 mph 36.8 mph N/A   Clear
1:35 PM 34.7 °F 22.8 °F 15.8 °F 46% 29.76 in 10.0 mi NW 23.0 mph 34.5 mph N/A   Clear
1:55 PM 34.7 °F 21.8 °F 16.7 °F 48% 29.76 in 10.0 mi NW 27.6 mph 34.5 mph N/A   Clear
2:15 PM 33.8 °F 20.8 °F 17.1 °F 50% 29.79 in 10.0 mi NW 26.5 mph 39.1 mph N/A   Clear
2:35 PM 31.8 °F 18.4 °F 10.0 °F 40% 29.81 in 10.0 mi NW 25.3 mph 43.7 mph N/A   Clear
2:55 PM 30.7 °F 16.9 °F 8.8 °F 40% 29.83 in 10.0 mi NW 25.3 mph 35.7 mph N/A   Clear
3:15 PM 29.8 °F 15.5 °F 7.9 °F 40% 29.84 in 10.0 mi NW 26.5 mph 33.4 mph N/A   Clear
3:35 PM 29.3 °F 16.6 °F 9.0 °F 43% 29.86 in 10.0 mi NW 19.6 mph 35.7 mph N/A   Clear
3:55 PM 28.8 °F 15.9 °F 9.9 °F 45% 29.87 in 10.0 mi NW 19.6 mph 33.4 mph N/A   Clear
4:15 PM 28.4 °F 15.8 °F 9.0 °F 44% 29.89 in 10.0 mi NW 18.4 mph 26.5 mph N/A   Clear
4:35 PM 27.3 °F 15.2 °F 9.7 °F 48% 29.91 in 10.0 mi NW 16.1 mph 23.0 mph N/A   Clear
4:55 PM 26.8 °F 14.5 °F 9.5 °F 48% 29.93 in 10.0 mi NW 16.1 mph 25.3 mph N/A   Clear
5:15 PM 26.1 °F 13.1 °F 9.9 °F 50% 29.93 in 10.0 mi NW 17.3 mph 26.5 mph N/A   Clear
5:35 PM 25.3 °F 13.1 °F 9.7 °F 52% 29.94 in 10.0 mi NW 15.0 mph 24.2 mph N/A   Clear
5:55 PM 24.8 °F 12.9 °F 8.8 °F 51% 29.94 in 10.0 mi NW 13.8 mph 20.7 mph N/A   Clear
6:15 PM 24.1 °F 15.2 °F 9.5 °F 54% 29.95 in 10.0 mi NW 8.1 mph - N/A   Clear
6:35 PM 23.5 °F 12.4 °F 8.6 °F 53% 29.96 in 10.0 mi NW 11.5 mph 18.4 mph N/A   Clear
6:55 PM 22.8 °F 12.9 °F 8.4 °F 54% 29.97 in 10.0 mi NW 9.2 mph - N/A   Clear
7:15 PM 22.6 °F 10.7 °F 7.5 °F 52% 29.98 in 10.0 mi NW 12.7 mph - N/A   Clear
7:35 PM 22.1 °F 10.6 °F 7.2 °F 53% 29.98 in 10.0 mi NW 11.5 mph - N/A   Clear
7:55 PM 21.2 °F 12.6 °F 8.2 °F 57% 29.98 in 10.0 mi NW 6.9 mph - N/A   Clear
8:15 PM 20.3 °F 12.5 °F 8.2 °F 60% 29.98 in 10.0 mi NW 5.8 mph - N/A   Clear
8:35 PM 20.5 °F 11.7 °F 7.5 °F 57% 29.98 in 10.0 mi NNW 6.9 mph - N/A   Clear
8:55 PM 19.9 °F 12.1 °F 7.7 °F 59% 29.99 in 10.0 mi WNW 5.8 mph - N/A   Clear
9:15 PM 18.7 °F 10.6 °F 7.7 °F 62% 30.00 in 10.0 mi WNW 5.8 mph - N/A   Clear
9:35 PM 18.3 °F 11.5 °F 8.1 °F 64% 30.00 in 10.0 mi West 4.6 mph - N/A   Clear
9:55 PM 18.0 °F 9.8 °F 8.2 °F 66% 30.00 in 10.0 mi WNW 5.8 mph - N/A   Clear
10:15 PM 18.1 °F - 8.4 °F 66% 29.99 in 10.0 mi Calm Calm - N/A   Clear
10:35 PM 16.7 °F 11.2 °F 7.7 °F 68% 29.99 in 10.0 mi West 3.5 mph - N/A   Clear
10:55 PM 17.1 °F 10.0 °F 7.5 °F 66% 29.99 in 10.0 mi West 4.6 mph - N/A   Clear
11:15 PM 17.1 °F 11.7 °F 8.1 °F 68% 29.98 in 10.0 mi WSW 3.5 mph - N/A   Clear
11:35 PM 17.6 °F 12.3 °F 9.5 °F 71% 29.97 in 10.0 mi SSW 3.5 mph - N/A   Clear
11:55 PM 18.5 °F - 10.6 °F 71% 29.94 in 10.0 mi Calm Calm - N/A   Clear